KMYR/MYR METAR and TAF weather

Enter ICAO airport designator
Station Type Date Time Source
KMYR METAR 2020/11/25 20:56 UTC NOAA

KMYR 252056Z 12008KT 10SM SCT044 OVC080 21/17 A3021 RMK AO2 SLP229 T02110172 56022


Station Type Date Time Source
KMYR Decoded METAR 2020/11/25 20:56 UTC NOAA

Myrtle Beach Air Force Base, SC, United States (KMYR) 33-41N 078-56W 8M
Nov 25, 2020 - 03:56 PM EST / 2020.11.25 2056 UTC
Wind: from the ESE (120 degrees) at 9 MPH (8 KT):0
Visibility: 10 mile(s):0
Sky conditions: overcast
Temperature: 70.0 F (21.1 C)
Dew Point: 63.0 F (17.2 C)
Relative Humidity: 78%
Pressure (altimeter): 30.21 in. Hg (1023 hPa)
Pressure tendency: 0.06 inches (2.2 hPa) lower than three hours ago
ob: KMYR 252056Z 12008KT 10SM SCT044 OVC080 21/17 A3021 RMK AO2 SLP229 T02110172 56022
cycle: 21

Station Type Date Time Source
KMYR TAF 2020/11/25 18:22 UTC NOAA

TAF KMYR 251720Z 2518/2618 15008KT P6SM BKN070
FM261100 21007KT P6SM VCSH BKN035

Example: see airport list